createdAt,value
2018-04-22T00:01:27.639Z,13.63
2018-04-22T00:03:55.172Z,13.68
2018-04-22T00:06:22.994Z,13.74
2018-04-22T00:08:50.600Z,13.75
2018-04-22T00:11:18.132Z,13.52
2018-04-22T00:13:45.682Z,13.40
2018-04-22T00:16:13.506Z,13.33
2018-04-22T00:18:41.047Z,13.35
2018-04-22T00:21:08.579Z,13.55
2018-04-22T00:23:36.115Z,13.45
2018-04-22T00:26:03.652Z,13.57
2018-04-22T00:28:31.183Z,13.59
2018-04-22T00:30:58.726Z,13.27
2018-04-22T00:33:26.255Z,13.07
2018-04-22T00:35:53.868Z,13.17
2018-04-22T00:38:21.420Z,13.03
2018-04-22T00:40:48.943Z,12.86
2018-04-22T00:43:16.493Z,12.64
2018-04-22T00:45:44.078Z,12.55
2018-04-22T00:48:11.646Z,12.53
2018-04-22T00:50:39.183Z,12.65
2018-04-22T00:53:06.728Z,12.68
2018-04-22T00:55:34.274Z,12.74
2018-04-22T00:58:01.807Z,12.62
2018-04-22T01:00:29.385Z,12.48
2018-04-22T01:02:56.932Z,12.60
2018-04-22T01:05:24.472Z,12.66
2018-04-22T01:07:52.052Z,12.78
2018-04-22T01:10:19.597Z,12.85
2018-04-22T01:12:47.127Z,12.70
2018-04-22T01:15:14.661Z,12.30
2018-04-22T01:17:42.222Z,12.05
2018-04-22T01:20:09.808Z,11.85
2018-04-22T01:22:37.358Z,11.75
2018-04-22T01:25:04.940Z,11.92
2018-04-22T01:27:32.480Z,11.72
2018-04-22T01:30:00.011Z,11.60
2018-04-22T01:32:27.572Z,11.71
2018-04-22T01:34:55.134Z,11.74
2018-04-22T01:37:22.666Z,11.65
2018-04-22T01:39:50.200Z,11.74
2018-04-22T01:42:17.759Z,11.71
2018-04-22T01:44:45.304Z,11.78
2018-04-22T01:47:12.835Z,11.83
2018-04-22T01:49:40.408Z,11.86
2018-04-22T01:52:07.946Z,12.17
2018-04-22T01:54:35.532Z,12.28
2018-04-22T01:57:03.155Z,12.37
2018-04-22T01:59:30.688Z,12.45
2018-04-22T02:01:58.280Z,12.51
2018-04-22T02:04:25.821Z,12.55
2018-04-22T02:06:53.377Z,12.63
2018-04-22T02:09:20.905Z,12.67
2018-04-22T02:11:48.432Z,12.65
2018-04-22T02:14:15.982Z,12.62
2018-04-22T02:16:43.567Z,12.43
2018-04-22T02:19:11.112Z,12.37
2018-04-22T02:21:38.674Z,12.33
2018-04-22T02:24:06.211Z,12.31
2018-04-22T02:26:33.788Z,12.28
2018-04-22T02:29:01.572Z,12.33
2018-04-22T02:31:29.141Z,12.51
2018-04-22T02:33:56.701Z,12.62
2018-04-22T02:36:24.255Z,12.51
2018-04-22T02:38:51.839Z,12.23
2018-04-22T02:41:19.378Z,12.23
2018-04-22T02:43:46.912Z,12.24
2018-04-22T02:46:14.444Z,12.27
2018-04-22T02:48:41.986Z,12.18
2018-04-22T02:51:09.575Z,12.15
2018-04-22T02:53:37.118Z,12.10
2018-04-22T02:56:04.727Z,12.02
2018-04-22T02:58:32.293Z,11.96
2018-04-22T03:00:59.935Z,11.93
2018-04-22T03:03:27.501Z,11.94
2018-04-22T03:05:55.039Z,11.93
2018-04-22T03:08:22.584Z,11.95
2018-04-22T03:10:50.120Z,11.94
2018-04-22T03:13:17.705Z,11.54
2018-04-22T03:15:45.251Z,11.35
2018-04-22T03:18:12.826Z,11.24
2018-04-22T03:20:41.359Z,11.20
2018-04-22T03:23:08.892Z,11.06
2018-04-22T03:25:36.441Z,10.83
2018-04-22T03:28:04.029Z,10.65
2018-04-22T03:30:31.627Z,10.46
2018-04-22T03:32:59.161Z,10.45
2018-04-22T03:35:26.695Z,10.35
2018-04-22T03:37:54.237Z,10.19
2018-04-22T03:40:21.826Z,10.23
2018-04-22T03:42:49.373Z,10.23
2018-04-22T03:45:16.906Z,10.08
2018-04-22T03:47:44.459Z,10.02
2018-04-22T03:50:12.066Z,9.86
2018-04-22T03:52:39.601Z,9.92
2018-04-22T03:55:07.143Z,9.87
2018-04-22T03:57:34.723Z,9.83
2018-04-22T04:00:02.264Z,9.83
2018-04-22T04:02:29.844Z,9.90
2018-04-22T04:04:57.432Z,9.96
2018-04-22T04:07:24.971Z,9.87
2018-04-22T04:09:52.523Z,10.02
2018-04-22T04:12:20.069Z,10.15
2018-04-22T04:14:47.605Z,10.17
2018-04-22T04:17:15.129Z,10.51
2018-04-22T04:19:54.471Z,10.93
2018-04-22T04:22:34.012Z,11.45
2018-04-22T04:25:40.054Z,12.13
2018-04-22T04:28:07.607Z,12.75
2018-04-22T04:30:35.189Z,12.93
2018-04-22T04:33:02.764Z,12.77
2018-04-22T04:35:30.305Z,12.99
2018-04-22T04:37:57.884Z,13.10
2018-04-22T04:40:25.435Z,13.20
2018-04-22T04:42:52.962Z,13.71
2018-04-22T04:45:20.505Z,14.94
2018-04-22T04:47:48.036Z,15.49
2018-04-22T04:50:15.578Z,15.99
2018-04-22T04:52:43.151Z,17.10
2018-04-22T04:55:10.742Z,17.38
2018-04-22T04:57:38.280Z,17.27
2018-04-22T05:00:06.340Z,17.46
2018-04-22T05:02:33.976Z,17.82
2018-04-22T05:05:01.557Z,17.91
2018-04-22T05:07:29.103Z,17.37
2018-04-22T05:09:56.626Z,17.24
2018-04-22T05:12:24.179Z,17.10
2018-04-22T05:14:51.935Z,17.55
2018-04-22T05:17:19.485Z,18.87
2018-04-22T05:19:47.015Z,19.54
2018-04-22T05:22:14.553Z,19.99
2018-04-22T05:24:42.124Z,20.04
2018-04-22T05:27:09.690Z,20.26
2018-04-22T05:29:37.591Z,20.47
2018-04-22T05:32:05.150Z,20.49
2018-04-22T05:34:32.696Z,20.72
2018-04-22T05:37:00.240Z,21.11
2018-04-22T05:39:27.790Z,20.77
2018-04-22T05:41:55.331Z,21.17
2018-04-22T05:44:22.919Z,21.51
2018-04-22T05:46:50.467Z,21.76
2018-04-22T05:49:18.032Z,22.08
2018-04-22T05:51:45.579Z,22.05
2018-04-22T05:54:13.131Z,20.95
2018-04-22T05:56:40.685Z,21.11
2018-04-22T05:59:10.741Z,22.20
2018-04-22T06:01:38.288Z,21.74
2018-04-22T06:04:05.831Z,22.34
2018-04-22T06:06:33.443Z,21.58
2018-04-22T06:09:00.991Z,22.28
2018-04-22T06:11:28.563Z,20.89
2018-04-22T06:13:56.143Z,21.34
2018-04-22T06:16:23.680Z,20.69
2018-04-22T06:18:51.233Z,20.20
2018-04-22T06:21:18.800Z,20.98
2018-04-22T06:23:46.378Z,22.14
2018-04-22T06:26:13.924Z,22.70
2018-04-22T06:28:41.485Z,22.33
2018-04-22T06:31:09.071Z,22.22
2018-04-22T06:33:36.633Z,22.99
2018-04-22T06:36:04.214Z,23.01
2018-04-22T06:38:31.756Z,24.16
2018-04-22T06:40:59.323Z,25.23
2018-04-22T06:43:26.947Z,25.24
2018-04-22T06:45:54.474Z,24.12
2018-04-22T06:48:22.052Z,24.59
2018-04-22T06:50:49.596Z,24.93
2018-04-22T06:53:17.145Z,23.79
2018-04-22T06:55:44.707Z,23.93
2018-04-22T06:58:12.249Z,24.22
2018-04-22T07:00:39.795Z,25.32
2018-04-22T07:03:07.328Z,26.39
2018-04-22T07:05:34.868Z,25.37
2018-04-22T07:08:02.477Z,24.36
2018-04-22T07:10:30.032Z,25.09
2018-04-22T07:12:57.672Z,24.78
2018-04-22T07:15:25.214Z,24.38
2018-04-22T07:17:52.751Z,25.06
2018-04-22T07:20:20.303Z,25.53
2018-04-22T07:22:47.882Z,25.72
2018-04-22T07:25:16.239Z,28.06
2018-04-22T07:27:43.795Z,27.57
2018-04-22T07:30:11.397Z,26.54
2018-04-22T07:32:38.987Z,27.09
2018-04-22T07:35:06.565Z,26.64
2018-04-22T07:37:34.120Z,25.08
2018-04-22T07:40:01.671Z,27.08
2018-04-22T07:42:29.317Z,25.42
2018-04-22T07:44:56.871Z,26.54
2018-04-22T07:47:24.691Z,26.75
2018-04-22T07:49:52.231Z,26.56
2018-04-22T07:52:19.820Z,26.85
2018-04-22T07:54:47.356Z,27.09
2018-04-22T07:57:14.895Z,26.14
2018-04-22T07:59:42.469Z,26.72
2018-04-22T08:02:10.035Z,27.19
2018-04-22T08:04:37.622Z,27.93
2018-04-22T08:07:05.168Z,27.14
2018-04-22T08:09:32.721Z,26.70
2018-04-22T08:12:00.269Z,27.14
2018-04-22T08:14:27.812Z,27.34
2018-04-22T08:16:55.371Z,26.31
2018-04-22T08:19:22.934Z,26.86
2018-04-22T08:21:50.533Z,27.15
2018-04-22T08:24:18.079Z,27.88
2018-04-22T08:26:45.649Z,27.85
2018-04-22T08:29:13.199Z,29.15
2018-04-22T08:31:40.803Z,28.65
2018-04-22T08:34:08.499Z,29.20
2018-04-22T08:36:36.079Z,29.59
2018-04-22T08:39:03.654Z,29.36
2018-04-22T08:41:31.283Z,28.21
2018-04-22T08:43:58.867Z,29.34
2018-04-22T08:46:26.413Z,29.64
2018-04-22T08:48:53.967Z,29.30
2018-04-22T08:51:21.505Z,29.25
2018-04-22T08:53:49.031Z,29.44
2018-04-22T08:56:16.618Z,29.29
2018-04-22T08:58:44.163Z,30.52
2018-04-22T09:01:11.765Z,30.22
2018-04-22T09:03:39.348Z,30.39
2018-04-22T09:06:06.900Z,29.74
2018-04-22T09:08:34.428Z,30.45
2018-04-22T09:11:01.968Z,30.64
2018-04-22T09:13:29.532Z,31.20
2018-04-22T09:15:57.182Z,30.63
2018-04-22T09:18:24.752Z,31.53
2018-04-22T09:20:52.274Z,32.06
2018-04-22T09:23:19.836Z,32.72
2018-04-22T09:25:47.421Z,32.31
2018-04-22T09:28:14.998Z,32.69
2018-04-22T09:30:42.596Z,33.01
2018-04-22T09:33:10.188Z,32.54
2018-04-22T09:35:37.707Z,31.57
2018-04-22T09:38:05.252Z,31.43
2018-04-22T09:40:32.816Z,31.02
2018-04-22T09:43:00.351Z,30.59
2018-04-22T09:45:27.884Z,31.57
2018-04-22T09:47:55.410Z,31.89
2018-04-22T09:50:22.939Z,31.18
2018-04-22T09:52:50.475Z,31.31
2018-04-22T09:55:18.093Z,30.74
2018-04-22T09:57:45.627Z,30.72
2018-04-22T10:00:18.611Z,31.47
2018-04-22T10:02:49.015Z,30.73
2018-04-22T10:08:16.718Z,31.84
2018-04-22T10:10:44.252Z,31.92
2018-04-22T10:13:11.820Z,32.44
2018-04-22T10:15:39.357Z,31.28
2018-04-22T10:18:06.940Z,30.94
2018-04-22T10:20:34.509Z,31.40
2018-04-22T10:23:02.050Z,31.27
2018-04-22T10:25:29.612Z,32.30
2018-04-22T10:27:57.171Z,33.05
2018-04-22T10:30:24.739Z,33.00
2018-04-22T10:32:52.267Z,34.08
2018-04-22T10:35:19.845Z,32.81
2018-04-22T10:37:47.397Z,32.74
2018-04-22T10:40:14.967Z,33.59
2018-04-22T10:42:42.530Z,33.30
2018-04-22T10:45:10.079Z,33.36
2018-04-22T10:47:37.656Z,32.65
2018-04-22T10:50:05.228Z,32.10
2018-04-22T10:52:32.779Z,32.15
2018-04-22T10:55:01.153Z,31.60
2018-04-22T10:57:28.692Z,33.13
2018-04-22T10:59:56.266Z,33.52
2018-04-22T11:02:23.870Z,33.52
2018-04-22T11:04:51.406Z,33.96
2018-04-22T11:07:19.035Z,33.72
2018-04-22T11:09:46.579Z,34.03
2018-04-22T11:12:14.142Z,33.64
2018-04-22T11:14:41.980Z,32.40
2018-04-22T11:17:09.567Z,31.98
2018-04-22T11:19:37.130Z,32.15
2018-04-22T11:22:04.662Z,31.88
2018-04-22T11:24:32.271Z,32.14
2018-04-22T11:26:59.806Z,31.88
2018-04-22T11:29:27.352Z,32.08
2018-04-22T11:31:54.927Z,33.32
2018-04-22T11:34:22.505Z,33.95
2018-04-22T11:36:50.094Z,33.17
2018-04-22T11:39:17.633Z,33.06
2018-04-22T11:41:45.203Z,32.72
2018-04-22T11:44:12.743Z,32.48
2018-04-22T11:46:40.314Z,32.42
2018-04-22T11:49:07.924Z,33.06
2018-04-22T11:51:35.512Z,33.58
2018-04-22T11:54:04.020Z,33.33
2018-04-22T11:56:31.565Z,34.01
2018-04-22T11:58:59.139Z,33.62
2018-04-22T12:01:26.707Z,33.22
2018-04-22T12:03:54.253Z,33.80
2018-04-22T12:06:21.825Z,33.90
2018-04-22T12:08:49.366Z,33.84
2018-04-22T12:11:16.916Z,33.44
2018-04-22T12:13:44.493Z,32.61
2018-04-22T12:16:12.088Z,33.41
2018-04-22T12:18:39.620Z,32.57
2018-04-22T12:21:07.179Z,31.82
2018-04-22T12:23:34.720Z,31.99
2018-04-22T12:26:02.321Z,32.46
2018-04-22T12:28:29.851Z,32.13
2018-04-22T12:30:57.433Z,31.87
2018-04-22T12:33:24.955Z,31.81
2018-04-22T12:35:52.492Z,31.38
2018-04-22T12:38:20.020Z,31.48
2018-04-22T12:40:47.574Z,32.39
2018-04-22T12:43:15.116Z,32.93
2018-04-22T12:45:42.642Z,32.65
2018-04-22T12:48:10.188Z,31.91
2018-04-22T12:50:37.711Z,31.82
2018-04-22T12:53:05.244Z,31.25
2018-04-22T12:55:33.058Z,31.11
2018-04-22T12:58:00.640Z,31.49
2018-04-22T13:00:28.191Z,31.31
2018-04-22T13:02:55.710Z,31.30
2018-04-22T13:05:23.267Z,30.74
2018-04-22T13:07:50.864Z,31.30
2018-04-22T13:10:18.397Z,31.29
2018-04-22T13:12:45.938Z,30.99
2018-04-22T13:15:13.477Z,30.84
2018-04-22T13:17:41.007Z,30.55
2018-04-22T13:20:08.550Z,30.36
2018-04-22T13:22:36.107Z,30.12
2018-04-22T13:25:03.660Z,29.92
2018-04-22T13:27:31.246Z,29.55
2018-04-22T13:29:58.782Z,29.15
2018-04-22T13:32:26.336Z,29.07
2018-04-22T13:34:53.885Z,28.95
2018-04-22T13:37:21.447Z,28.90
2018-04-22T13:39:49.020Z,28.80
2018-04-22T13:42:16.555Z,28.94
2018-04-22T13:44:44.101Z,28.94
2018-04-22T13:47:11.642Z,28.80
2018-04-22T13:49:39.164Z,28.66
2018-04-22T13:52:06.726Z,28.76
2018-04-22T13:54:34.307Z,28.55
2018-04-22T13:57:01.855Z,28.41
2018-04-22T13:59:29.396Z,28.49
2018-04-22T14:01:57.013Z,28.02
2018-04-22T14:04:24.816Z,28.17
2018-04-22T14:06:52.353Z,28.23
2018-04-22T14:09:19.887Z,28.23
2018-04-22T14:11:48.063Z,28.32
2018-04-22T14:14:15.607Z,28.25
2018-04-22T14:16:43.155Z,28.26
2018-04-22T14:19:10.727Z,28.28
2018-04-22T14:21:38.286Z,28.08
2018-04-22T14:24:05.877Z,28.21
2018-04-22T14:26:33.477Z,28.32
2018-04-22T14:29:01.042Z,28.23
2018-04-22T14:31:28.624Z,28.07
2018-04-22T14:33:56.227Z,28.04
2018-04-22T14:36:23.763Z,28.15
2018-04-22T14:38:51.314Z,28.10
2018-04-22T14:41:18.856Z,28.14
2018-04-22T14:43:58.084Z,28.15
2018-04-22T14:46:25.667Z,27.95
2018-04-22T14:49:04.960Z,27.91
2018-04-22T14:51:32.505Z,27.85
2018-04-22T14:54:00.056Z,27.95
2018-04-22T14:56:27.655Z,27.94
2018-04-22T14:58:55.212Z,27.81
2018-04-22T15:01:22.862Z,27.67
2018-04-22T15:03:50.433Z,27.56
2018-04-22T15:06:17.996Z,27.34
2018-04-22T15:08:45.536Z,27.60
2018-04-22T15:11:13.348Z,27.64
2018-04-22T15:13:40.893Z,27.58
2018-04-22T15:16:08.445Z,27.51
2018-04-22T15:18:36.020Z,27.25
2018-04-22T15:21:03.547Z,27.17
2018-04-22T15:23:31.083Z,27.07
2018-04-22T15:25:58.923Z,26.98
2018-04-22T15:28:27.501Z,27.10
2018-04-22T15:30:55.037Z,27.16
2018-04-22T15:33:22.629Z,27.20
2018-04-22T15:35:50.219Z,27.22
2018-04-22T15:38:17.765Z,27.20
2018-04-22T15:40:45.327Z,27.26
2018-04-22T15:43:12.874Z,26.98
2018-04-22T15:45:40.415Z,26.85
2018-04-22T15:48:08.366Z,26.89
2018-04-22T15:50:35.892Z,27.02
2018-04-22T15:53:03.523Z,26.93
2018-04-22T15:55:31.068Z,26.85
2018-04-22T15:57:58.612Z,26.67
2018-04-22T16:00:26.135Z,26.77
2018-04-22T16:02:54.043Z,26.75
2018-04-22T16:05:21.588Z,26.77
2018-04-22T16:07:49.119Z,26.67
2018-04-22T16:10:16.671Z,26.58
2018-04-22T16:12:44.244Z,26.46
2018-04-22T16:15:11.775Z,26.43
2018-04-22T16:17:39.311Z,26.33
2018-04-22T16:20:06.857Z,26.21
2018-04-22T16:22:34.392Z,26.25
2018-04-22T16:25:01.932Z,26.22
2018-04-22T16:27:29.456Z,26.20
2018-04-22T16:29:57.046Z,26.04
2018-04-22T16:32:24.685Z,26.00
2018-04-22T16:34:52.226Z,25.97
2018-04-22T16:37:19.792Z,25.72
2018-04-22T16:39:47.384Z,25.75
2018-04-22T16:42:14.928Z,25.65
2018-04-22T16:44:42.473Z,25.64
2018-04-22T16:47:10.005Z,25.43
2018-04-22T16:49:37.815Z,25.34
2018-04-22T16:52:05.392Z,25.30
2018-04-22T16:54:32.987Z,25.20
2018-04-22T16:57:01.149Z,25.15
2018-04-22T16:59:28.963Z,25.24
2018-04-22T17:01:56.697Z,25.11
2018-04-22T17:04:24.229Z,25.14
2018-04-22T17:06:51.771Z,25.05
2018-04-22T17:09:19.328Z,24.90
2018-04-22T17:11:47.094Z,24.91
2018-04-22T17:14:14.675Z,24.79
2018-04-22T17:16:42.217Z,24.71
2018-04-22T17:19:09.761Z,24.68
2018-04-22T17:21:37.291Z,24.47
2018-04-22T17:24:05.795Z,24.34
2018-04-22T17:26:33.308Z,24.22
2018-04-22T17:29:00.838Z,24.24
2018-04-22T17:31:28.403Z,24.19
2018-04-22T17:33:55.992Z,24.20
2018-04-22T17:36:23.540Z,24.23
2018-04-22T17:38:51.097Z,24.17
2018-04-22T17:41:18.700Z,24.07
2018-04-22T17:43:46.248Z,24.13
2018-04-22T17:46:13.788Z,23.96
2018-04-22T17:48:41.328Z,23.87
2018-04-22T17:51:08.868Z,23.72
2018-04-22T17:53:36.406Z,23.74
2018-04-22T17:56:03.965Z,23.73
2018-04-22T17:58:31.512Z,23.67
2018-04-22T18:00:59.078Z,23.69
2018-04-22T18:03:26.639Z,23.69
2018-04-22T18:05:54.191Z,23.60
2018-04-22T18:08:21.740Z,23.55
2018-04-22T18:10:49.314Z,23.54
2018-04-22T18:13:16.859Z,23.48
2018-04-22T18:15:44.429Z,23.43
2018-04-22T18:18:11.969Z,23.29
2018-04-22T18:20:39.557Z,23.11
2018-04-22T18:23:07.092Z,23.05
2018-04-22T18:25:34.629Z,22.99
2018-04-22T18:28:02.170Z,22.97
2018-04-22T18:30:29.712Z,22.99
2018-04-22T18:32:57.243Z,23.00
2018-04-22T18:35:24.913Z,22.91
2018-04-22T18:37:52.459Z,22.81
2018-04-22T18:40:20.017Z,22.82
2018-04-22T18:42:48.490Z,22.75
2018-04-22T18:45:16.028Z,22.59
2018-04-22T18:47:43.566Z,22.61
2018-04-22T18:50:11.102Z,22.61
2018-04-22T18:52:38.635Z,22.55
2018-04-22T18:55:06.164Z,22.54
2018-04-22T18:57:33.712Z,22.44
2018-04-22T19:00:01.248Z,22.37
2018-04-22T19:02:28.821Z,22.33
2018-04-22T19:04:56.361Z,22.26
2018-04-22T19:07:23.933Z,22.22
2018-04-22T19:09:51.468Z,22.18
2018-04-22T19:12:19.006Z,22.16
2018-04-22T19:14:46.558Z,22.07
2018-04-22T19:17:14.167Z,22.04
2018-04-22T19:19:41.659Z,21.74
2018-04-22T19:22:09.235Z,22.04
2018-04-22T19:24:36.808Z,22.03
2018-04-22T19:27:04.350Z,21.96
2018-04-22T19:29:31.913Z,21.84
2018-04-22T19:32:00.404Z,21.85
2018-04-22T19:34:28.911Z,21.80
2018-04-22T19:36:56.479Z,21.74
2018-04-22T19:39:24.071Z,21.67
2018-04-22T19:41:51.617Z,21.64
2018-04-22T19:44:19.167Z,21.58
2018-04-22T19:46:46.704Z,21.59
2018-04-22T19:49:14.254Z,21.50
2018-04-22T19:51:41.807Z,21.46
2018-04-22T19:54:09.378Z,21.43
2018-04-22T19:56:36.899Z,21.41
2018-04-22T19:59:04.422Z,21.35
2018-04-22T20:01:32.005Z,21.31
2018-04-22T20:03:59.531Z,21.27
2018-04-22T20:06:29.958Z,21.18
2018-04-22T20:08:57.507Z,20.98
2018-04-22T20:11:25.088Z,20.92
2018-04-22T20:13:52.687Z,20.40
2018-04-22T20:16:20.235Z,20.25
2018-04-22T20:18:47.815Z,20.28
2018-04-22T20:21:15.353Z,20.29
2018-04-22T20:23:42.928Z,20.30
2018-04-22T20:26:10.705Z,20.13
2018-04-22T20:28:38.264Z,20.23
2018-04-22T20:31:05.804Z,20.31
2018-04-22T20:33:33.334Z,20.28
2018-04-22T20:36:00.908Z,20.18
2018-04-22T20:38:28.471Z,20.01
2018-04-22T20:40:56.007Z,19.91
2018-04-22T20:43:23.557Z,19.83
2018-04-22T20:45:51.097Z,19.81
2018-04-22T20:48:18.633Z,19.60
2018-04-22T20:50:46.215Z,19.37
2018-04-22T20:53:13.766Z,19.09
2018-04-22T20:55:41.313Z,18.56
2018-04-22T20:58:08.900Z,18.21
2018-04-22T21:00:36.477Z,17.98
2018-04-22T21:03:04.017Z,18.01
2018-04-22T21:05:31.565Z,17.96
2018-04-22T21:07:59.091Z,17.97
2018-04-22T21:10:26.640Z,17.92
2018-04-22T21:12:54.233Z,17.95
2018-04-22T21:15:21.781Z,18.01
2018-04-22T21:17:49.324Z,17.95
2018-04-22T21:20:16.901Z,17.83
2018-04-22T21:22:44.443Z,17.85
2018-04-22T21:25:11.974Z,17.78
2018-04-22T21:27:39.498Z,17.69
2018-04-22T21:30:07.084Z,17.54
2018-04-22T21:32:34.655Z,17.50
2018-04-22T21:35:02.186Z,17.46
2018-04-22T21:37:29.723Z,17.09
2018-04-22T21:39:57.251Z,17.28
2018-04-22T21:42:24.793Z,17.09
2018-04-22T21:44:52.363Z,17.25
2018-04-22T21:47:20.715Z,17.25
2018-04-22T21:49:48.244Z,17.20
2018-04-22T21:52:15.815Z,17.24
2018-04-22T21:54:43.342Z,17.18
2018-04-22T21:57:10.873Z,17.10
2018-04-22T21:59:38.404Z,17.19
2018-04-22T22:02:05.959Z,17.15
2018-04-22T22:04:33.495Z,17.09
2018-04-22T22:07:01.044Z,17.09
2018-04-22T22:09:28.575Z,17.06
2018-04-22T22:11:56.117Z,17.03
2018-04-22T22:14:23.652Z,17.07
2018-04-22T22:16:51.954Z,17.01
2018-04-22T22:19:19.483Z,17.07
2018-04-22T22:21:47.010Z,16.99
2018-04-22T22:24:14.575Z,17.07
2018-04-22T22:26:42.108Z,17.01
2018-04-22T22:29:09.675Z,16.93
2018-04-22T22:31:37.208Z,16.92
2018-04-22T22:34:04.744Z,16.80
2018-04-22T22:36:32.307Z,16.84
2018-04-22T22:39:00.063Z,16.83
2018-04-22T22:41:27.608Z,16.85
2018-04-22T22:43:55.164Z,16.81
2018-04-22T22:46:22.798Z,16.77
2018-04-22T22:48:50.347Z,16.74
2018-04-22T22:51:17.887Z,16.76
2018-04-22T22:53:45.475Z,16.74
2018-04-22T22:56:13.016Z,16.70
2018-04-22T22:58:40.588Z,16.62
2018-04-22T23:01:08.156Z,16.44
2018-04-22T23:03:35.688Z,16.49
2018-04-22T23:06:03.224Z,16.46
2018-04-22T23:08:30.760Z,16.47
2018-04-22T23:10:58.303Z,16.40
2018-04-22T23:13:25.866Z,16.42
2018-04-22T23:15:53.392Z,16.49
2018-04-22T23:18:20.968Z,16.47
2018-04-22T23:20:48.507Z,16.42
2018-04-22T23:23:16.074Z,16.43
2018-04-22T23:25:43.608Z,16.31
2018-04-22T23:28:11.153Z,16.27
2018-04-22T23:30:38.727Z,16.15
2018-04-22T23:33:06.259Z,16.06
2018-04-22T23:35:33.841Z,16.14
2018-04-22T23:38:01.372Z,16.05
2018-04-22T23:40:28.905Z,16.04
2018-04-22T23:42:56.430Z,16.03
2018-04-22T23:45:23.961Z,15.98
2018-04-22T23:47:51.520Z,15.67
2018-04-22T23:50:19.091Z,15.60
2018-04-22T23:52:46.644Z,15.20
2018-04-22T23:55:14.188Z,15.28
2018-04-22T23:57:41.794Z,15.37
